• Join FlightAware (Why Join?)
  • Login
  • US Flag 
04:24AM EDT


 

Airport Tracker/Info


-or-


 

Live Flight TrackerFlight Track Log ✈ FDX90 ✈ 29-Jun-2013 ✈ ZSPD / PVG - KMEM

Flight Track Log - Related Links

Times and Time Zones

All times are in EDT time to prevent confusion due to time zone crossing. See the FDX90 flight status page for this flight to view local times or setup timezone preferences in your user account.

Time Position Orientation Groundspeed Altitude Reporting Facility
EDT Latitude Longitude Course Direction KTS MPH feet Rate Location/Type
06:06PM 50.8833 -161.8500 84° East 542 624 33,000  Level Oakland Oceanic (ODAPS)
06:12PM 50.9736 -160.4633 85° East 542 624 33,000  Level FlightAware Transoceanic
06:13PM 50.9870 -160.2317 85° East 542 624 33,000  Level FlightAware Transoceanic
06:14PM 51.0000 -160.0000 95° East 542 624 33,000  Level FlightAware Transoceanic
06:14PM 51.0000 -160.0000 95° East 531 611 33,000  Level Oakland Oceanic (ODAPS)
06:15PM 50.9872 -159.7738 95° East 542 624 33,000  Level FlightAware Transoceanic
06:16PM 50.9740 -159.5477 95° East 542 624 33,000  Level FlightAware Transoceanic
06:17PM 50.9603 -159.3217 96° East 542 624 33,000  Level FlightAware Transoceanic
06:18PM 50.9462 -159.0958 96° East 542 624 33,000  Level FlightAware Transoceanic
06:19PM 50.9316 -158.8701 96° East 542 624 33,000  Level FlightAware Transoceanic
06:20PM 50.9146 -158.6138 96° East 531 611 33,000  Level FlightAware Transoceanic
06:20PM 50.9167 -158.5833 96° East 527 606 33,000  Level Oakland Oceanic (ODAPS)
06:21PM 50.8987 -158.3833 96° East 531 611 33,000  Level FlightAware Transoceanic
06:22PM 50.8824 -158.1529 96° East 531 611 33,000  Level FlightAware Transoceanic
06:23PM 50.8657 -157.9227 97° East 531 611 33,000  Level FlightAware Transoceanic
06:24PM 50.8485 -157.6927 97° East 531 611 33,000  Level FlightAware Transoceanic
06:25PM 50.8309 -157.4628 97° East 531 611 33,000  Level FlightAware Transoceanic
06:26PM 50.8143 -157.2075 97° East 527 606 33,000  Level FlightAware Transoceanic
06:27PM 50.7956 -156.9788 97° East 527 606 33,000  Level FlightAware Transoceanic
06:28PM 50.7765 -156.7503 98° East 527 606 33,000  Level FlightAware Transoceanic
06:29PM 50.7570 -156.5220 98° East 527 606 33,000  Level FlightAware Transoceanic
06:30PM 50.7370 -156.2939 98° East 527 606 33,000  Level FlightAware Transoceanic
06:31PM 50.7166 -156.0659 98° East 527 606 33,000  Level FlightAware Transoceanic
06:32PM 50.6957 -155.8382 98° East 527 606 33,000  Level FlightAware Transoceanic
06:33PM 50.6744 -155.6107 98° East 527 606 33,000  Level FlightAware Transoceanic
06:33PM 50.6500 -155.3667 99° East 530 610 33,000  Level Oakland Oceanic (ODAPS)
06:34PM 50.6527 -155.3833 99° East 527 606 33,000  Level FlightAware Transoceanic
06:35PM 50.6305 -155.1562 99° East 527 606 33,000  Level FlightAware Transoceanic
06:36PM 50.6078 -154.9293 99° East 527 606 33,000  Level FlightAware Transoceanic
06:37PM 50.5848 -154.7027 99° East 527 606 33,000  Level FlightAware Transoceanic
06:38PM 50.5612 -154.4762 99° East 527 606 33,000  Level FlightAware Transoceanic
06:39PM 50.5373 -154.2500 100° East 527 606 33,000  Level FlightAware Transoceanic
06:40PM 50.5108 -154.0116 100° East 530 610 33,000  Level FlightAware Transoceanic
06:41PM 50.4860 -153.7866 100° East 530 610 33,000  Level FlightAware Transoceanic
06:42PM 50.4609 -153.5618 100° East 530 610 33,000  Level FlightAware Transoceanic
06:43PM 50.4353 -153.3372 100° East 530 610 33,000  Level FlightAware Transoceanic
06:44PM 50.4092 -153.1129 100° East 530 610 33,000  Level FlightAware Transoceanic
06:45PM 50.3828 -152.8888 101° East 530 610 33,000  Level FlightAware Transoceanic
06:46PM 50.3559 -152.6650 101° East 530 610 33,000  Level FlightAware Transoceanic
06:47PM 50.3286 -152.4414 101° East 530 610 33,000  Level FlightAware Transoceanic
06:47PM 50.3000 -152.2000 101° East 522 601 33,000  Level Oakland Oceanic (ODAPS)
06:48PM 50.3008 -152.2181 101° East 530 610 33,000  Level FlightAware Transoceanic
06:49PM 50.2726 -151.9951 101° East 530 610 33,000  Level FlightAware Transoceanic
06:50PM 50.2440 -151.7723 101° East 530 610 33,000  Level FlightAware Transoceanic
06:51PM 50.2150 -151.5498 102° East 530 610 33,000  Level FlightAware Transoceanic
06:52PM 50.1856 -151.3275 102° East 530 610 33,000  Level FlightAware Transoceanic
06:53PM 50.1557 -151.1056 102° East 530 610 33,000  Level FlightAware Transoceanic
06:54PM 50.1250 -150.8767 102° East 522 601 33,000  Level FlightAware Transoceanic
06:55PM 50.0944 -150.6571 102° East 522 601 33,000  Level FlightAware Transoceanic
06:56PM 50.0633 -150.4378 103° East 522 601 33,000  Level FlightAware Transoceanic
06:57PM 50.0319 -150.2187 103° East 522 601 33,000  Level FlightAware Transoceanic
06:58PM 50.0000 -150.0000 95° East 522 601 33,000  Level FlightAware Transoceanic
06:59PM 49.9881 -149.7880 95° East 522 601 33,000  Level FlightAware Transoceanic
06:59PM 50.0000 -150.0000 95° East 498 573 33,000  Level Oakland Oceanic (ODAPS)
07:00PM 49.9757 -149.5762 95° East 522 601 33,000  Level FlightAware Transoceanic
07:01PM 49.9630 -149.3644 95° East 522 601 33,000  Level FlightAware Transoceanic
07:01PM 49.9500 -149.1333 96° East 493 567 33,000  Level Oakland Oceanic (ODAPS)
07:02PM 49.9499 -149.1528 96° East 522 601 33,000  Level FlightAware Transoceanic
07:03PM 49.9365 -148.9413 96° East 522 601 33,000  Level FlightAware Transoceanic
07:04PM 49.9226 -148.7299 96° East 522 601 33,000  Level FlightAware Transoceanic
07:05PM 49.9062 -148.4871 96° East 498 573 33,000  Level FlightAware Transoceanic
07:06PM 49.8912 -148.2715 96° East 498 573 33,000  Level FlightAware Transoceanic
07:07PM 49.8758 -148.0560 96° East 498 573 33,000  Level FlightAware Transoceanic
07:08PM 49.8499 -147.6911 97° East 493 567 33,000  Level FlightAware Transoceanic
07:09PM 49.8341 -147.4856 97° East 493 567 33,000  Level FlightAware Transoceanic
07:10PM 49.8180 -147.2802 97° East 493 567 33,000  Level FlightAware Transoceanic
07:11PM 49.8015 -147.0750 97° East 493 567 33,000  Level FlightAware Transoceanic
07:12PM 49.7846 -146.8699 97° East 493 567 33,000  Level FlightAware Transoceanic
07:13PM 49.7674 -146.6649 97° East 493 567 33,000  Level FlightAware Transoceanic
07:14PM 49.7498 -146.4601 98° East 493 567 33,000  Level FlightAware Transoceanic
07:15PM 49.7319 -146.2555 98° East 493 567 33,000  Level FlightAware Transoceanic
07:15PM 49.7333 -146.2167 98° East 479 551 33,000  Level Oakland Oceanic (ODAPS)
07:16PM 49.7136 -146.0510 98° East 493 567 33,000  Level FlightAware Transoceanic
07:17PM 49.6950 -145.8466 98° East 493 567 33,000  Level FlightAware Transoceanic
07:18PM 49.6759 -145.6424 98° East 493 567 33,000  Level FlightAware Transoceanic
07:19PM 49.6566 -145.4384 98° East 493 567 33,000  Level FlightAware Transoceanic
07:20PM 49.6368 -145.2345 99° East 493 567 33,000  Level FlightAware Transoceanic
07:21PM 49.6176 -144.9996 99° East 479 551 33,000  Level FlightAware Transoceanic
07:22PM 49.5970 -144.7973 99° East 479 551 33,000  Level FlightAware Transoceanic
07:23PM 49.5761 -144.5952 99° East 479 551 33,000  Level FlightAware Transoceanic
07:24PM 49.5549 -144.3932 99° East 479 551 33,000  Level FlightAware Transoceanic
07:25PM 49.5333 -144.1915 99° East 479 551 33,000  Level FlightAware Transoceanic
07:26PM 49.5114 -143.9899 100° East 479 551 33,000  Level FlightAware Transoceanic
07:27PM 49.4891 -143.7885 100° East 479 551 33,000  Level FlightAware Transoceanic
07:28PM 49.4665 -143.5873 100° East 479 551 33,000  Level FlightAware Transoceanic
07:29PM 49.4435 -143.3863 100° East 479 551 33,000  Level FlightAware Transoceanic
07:29PM 49.4333 -143.4000 100° East 480 552 33,000  Level Oakland Oceanic (ODAPS)
07:30PM 49.4202 -143.1855 100° East 479 551 33,000  Level FlightAware Transoceanic
07:31PM 49.3965 -142.9848 100° East 479 551 33,000  Level FlightAware Transoceanic
07:32PM 49.3724 -142.7844 101° East 479 551 33,000  Level FlightAware Transoceanic
07:33PM 49.3481 -142.5842 101° East 479 551 33,000  Level FlightAware Transoceanic
07:34PM 49.3233 -142.3841 101° East 479 551 33,000  Level FlightAware Transoceanic
07:35PM 49.2918 -142.1933 101° East 480 552 33,000  Level FlightAware Transoceanic
07:36PM 49.2670 -141.9928 101° East 480 552 33,000  Level FlightAware Transoceanic
07:37PM 49.2419 -141.7926 101° East 480 552 33,000  Level FlightAware Transoceanic
07:38PM 49.2164 -141.5926 101° East 480 552 33,000  Level FlightAware Transoceanic
07:39PM 49.1905 -141.3927 101° East 480 552 33,000  Level FlightAware Transoceanic
07:40PM 49.1643 -141.1931 101° East 480 552 33,000  Level FlightAware Transoceanic
07:41PM 49.1378 -140.9937 102° East 480 552 33,000  Level FlightAware Transoceanic
07:42PM 49.1109 -140.7945 102° East 480 552 33,000  Level FlightAware Transoceanic
07:43PM 49.0837 -140.5956 102° East 480 552 33,000  Level FlightAware Transoceanic
07:43PM 49.0833 -140.6167 101° East 478 550 33,000  Level Oakland Oceanic (ODAPS)
07:44PM 49.0561 -140.3968 102° East 480 552 33,000  Level FlightAware Transoceanic
07:45PM 49.0282 -140.1983 102° East 480 552 33,000  Level FlightAware Transoceanic
07:46PM 49.0000 -140.0000 97° East 480 552 33,000  Level FlightAware Transoceanic
07:46PM 49.0000 -140.0000 97° East 487 560 33,000  Level Oakland Oceanic (ODAPS)
07:47PM 48.9835 -139.7949 97° East 480 552 33,000  Level FlightAware Transoceanic
07:48PM 48.9666 -139.5899 97° East 480 552 33,000  Level FlightAware Transoceanic
07:49PM 48.9494 -139.3850 97° East 478 550 33,000  Level FlightAware Transoceanic
07:50PM 48.9318 -139.1803 98° East 478 550 33,000  Level FlightAware Transoceanic
07:51PM 48.9138 -138.9758 98° East 478 550 33,000  Level FlightAware Transoceanic
07:52PM 48.8955 -138.7714 98° East 487 560 33,000  Level FlightAware Transoceanic
07:53PM 48.8768 -138.5671 98° East 487 560 33,000  Level FlightAware Transoceanic
07:54PM 48.8578 -138.3630 98° East 487 560 33,000  Level FlightAware Transoceanic
07:55PM 48.8384 -138.1590 98° East 487 560 33,000  Level FlightAware Transoceanic
07:56PM 48.8186 -137.9552 98° East 487 560 33,000  Level FlightAware Transoceanic
07:57PM 48.7985 -137.7516 99° East 487 560 33,000  Level FlightAware Transoceanic
07:57PM 48.8000 -137.8500 98° East 488 562 33,000  Level Oakland Oceanic (ODAPS)
07:58PM 48.7780 -137.5482 99° East 487 560 33,000  Level FlightAware Transoceanic
07:59PM 48.7572 -137.3449 99° East 487 560 33,000  Level FlightAware Transoceanic
08:00PM 48.7360 -137.1417 99° East 487 560 33,000  Level FlightAware Transoceanic
08:01PM 48.7144 -136.9388 99° East 487 560 33,000  Level FlightAware Transoceanic
08:02PM 48.6925 -136.7360 99° East 487 560 33,000  Level FlightAware Transoceanic
08:03PM 48.6765 -136.6511 99° East 488 562 33,000  Level FlightAware Transoceanic
08:04PM 48.6547 -136.4518 99° East 488 562 33,000  Level FlightAware Transoceanic
08:05PM 48.6326 -136.2528 100° East 488 562 33,000  Level FlightAware Transoceanic
08:06PM 48.6101 -136.0539 100° East 488 562 33,000  Level FlightAware Transoceanic
08:07PM 48.5873 -135.8552 100° East 488 562 33,000  Level FlightAware Transoceanic
08:08PM 48.5641 -135.6566 100° East 488 562 33,000  Level FlightAware Transoceanic
08:09PM 48.5406 -135.4583 100° East 488 562 33,000  Level FlightAware Transoceanic
08:10PM 48.5168 -135.2601 100° East 488 562 33,000  Level FlightAware Transoceanic
08:10PM 48.5000 -135.0833 101° East 489 563 33,000  Level Oakland Oceanic (ODAPS)
08:11PM 48.4926 -135.0622 101° East 488 562 33,000  Level FlightAware Transoceanic
08:12PM 48.4681 -134.8644 101° East 488 562 33,000  Level FlightAware Transoceanic
08:13PM 48.4432 -134.6668 101° East 488 562 33,000  Level FlightAware Transoceanic
08:14PM 48.4180 -134.4694 101° East 488 562 33,000  Level FlightAware Transoceanic
08:15PM 48.3925 -134.2722 101° East 488 562 33,000  Level FlightAware Transoceanic
08:16PM 48.3666 -134.0752 101° East 488 562 33,000  Level FlightAware Transoceanic
08:17PM 48.3455 -133.8924 102° East 489 563 33,000  Level FlightAware Transoceanic
08:18PM 48.3186 -133.6946 102° East 489 563 33,000  Level FlightAware Transoceanic
08:19PM 48.2913 -133.4970 102° East 489 563 33,000  Level FlightAware Transoceanic
08:20PM 48.2637 -133.2997 102° East 489 563 33,000  Level FlightAware Transoceanic
08:21PM 48.2357 -133.1025 102° East 489 563 33,000  Level FlightAware Transoceanic
08:22PM 48.2074 -132.9056 102° East 489 563 33,000  Level FlightAware Transoceanic
08:23PM 48.1788 -132.7089 102° East 489 563 33,000  Level FlightAware Transoceanic
08:24PM 48.1498 -132.5124 103° East 489 563 33,000  Level FlightAware Transoceanic
08:24PM 48.1167 -132.3000 103° East 495 570 33,000  Level Oakland Oceanic (ODAPS)
08:25PM 48.1205 -132.3161 103° East 489 563 33,000  Level FlightAware Transoceanic
08:25PM 48.0667 -132.1167 75° East 580 667 33,000  Level Vancouver Center
08:26PM 48.0909 -132.1201 103° East 489 563 33,000  Level FlightAware Transoceanic
08:26PM 48.0500 -131.9167 97° East 490 564 33,000  Level Vancouver Center
08:27PM 48.0609 -131.9243 103° East 489 563 33,000  Level FlightAware Transoceanic
08:28PM 48.0274 -131.6520 97° East  Level Estimated
08:28PM 48.0306 -131.7287 103° East 489 563 33,000  Level FlightAware Transoceanic
08:29PM 48.0000 -131.5333 75° East 489 563 33,000  Level FlightAware Transoceanic
08:30PM 48.0400 -131.3120 75° East 489 563 33,000  Level FlightAware Transoceanic
08:31PM 48.0795 -131.0902 75° East 495 570 33,000  Level FlightAware Transoceanic
08:31PM 48.1000 -130.9333 99° East 580 667 33,000  Level Vancouver Center
08:32PM 48.1500 -130.6833 73° East 530 610 33,000  Level Vancouver Center
08:33PM 48.1333 -130.5000 98° East 510 587 33,000  Level Vancouver Center
08:34PM 48.1500 -130.2833 83° East 520 598 33,000  Level Vancouver Center
08:35PM 47.8853 -130.1342 97° East  Level Estimated
08:35PM 48.1667 -130.0500 84° East 520 598 33,000  Level Vancouver Center
08:36PM 47.8633 -129.9181 99° East  Level Estimated
08:36PM 48.1833 -129.8667 82° East 520 598 33,000  Level Vancouver Center
08:37PM 47.8412 -129.7038 99° East  Level Estimated
08:37PM 48.1833 -129.6333 90° East 520 598 33,000  Level Vancouver Center
08:38PM 48.2000 -129.4167 83° East 520 598 33,000  Level Vancouver Center
08:39PM 48.2000 -129.1833 90° East 520 598 33,000 840 Level Vancouver Center
08:40PM 48.2000 -128.9833 90° East 520 598 34,700 240 Climbing Vancouver Center
08:46PM 48.2390 -127.6170 90° East 513 590 35,000  Climbing FlightAware
08:47PM 48.2300 -127.4660 95° East 515 593 35,000  Level FlightAware
08:48PM 48.2210 -127.3070 95° East 517 595 35,000  Level FlightAware
08:48PM 48.2120 -127.1590 95° East 517 595 35,000  Level FlightAware
08:49PM 48.2000 -126.9690 95° East 516 594 35,000  Level FlightAware
08:51PM 48.1840 -126.7160 95° East 514 592 35,000  Level FlightAware
08:51PM 48.1730 -126.5450 95° East 514 592 35,000  Level FlightAware
08:52PM 48.1650 -126.4270 96° East 514 592 35,000  Level FlightAware
08:53PM 48.1530 -126.2470 96° East 515 593 35,000  Level FlightAware
08:53PM 48.1448 -126.1270 96° East 517 595 35,000  Level FlightAware ADS-B
08:54PM 48.1371 -126.0180 96° East 518 596 35,000  Level FlightAware ADS-B
08:54PM 48.1293 -125.9080 96° East 519 597 35,000  Level FlightAware ADS-B
08:55PM 48.1216 -125.8010 96° East 521 600 35,000  Level FlightAware ADS-B
08:55PM 48.1136 -125.6910 96° East 522 601 35,000  Level FlightAware ADS-B
08:56PM 48.1056 -125.5820 96° East 522 601 35,000  Level FlightAware ADS-B
08:56PM 48.0973 -125.4730 96° East 522 601 35,000  Level FlightAware ADS-B
08:57PM 48.0885 -125.3580 96° East 524 603 35,000  Level FlightAware ADS-B
08:57PM 48.0800 -125.2480 97° East 525 604 35,000  Level FlightAware ADS-B
08:58PM 48.0716 -125.1390 97° East 525 604 35,000  Level FlightAware ADS-B
08:58PM 48.0629 -125.0300 97° East 525 604 35,000  Level FlightAware ADS-B
08:59PM 48.0543 -124.9210 97° East 525 604 35,000  Level FlightAware ADS-B
08:59PM 48.0453 -124.8110 97° East 526 605 35,000  Level FlightAware ADS-B
09:00PM 48.0362 -124.7000 97° East 526 605 35,000  Level FlightAware ADS-B
09:00PM 48.0269 -124.5890 97° East 526 605 35,000  Level FlightAware ADS-B
09:01PM 48.0178 -124.4800 97° East 526 605 35,000  Level FlightAware ADS-B
09:01PM 48.0087 -124.3710 97° East 526 605 35,000  Level FlightAware ADS-B
09:02PM 47.9994 -124.2630 97° East 527 606 35,000  Level FlightAware ADS-B
09:02PM 47.9897 -124.1520 97° East 528 608 35,000  Level FlightAware ADS-B
09:03PM 47.9799 -124.0410 97° East 528 608 35,000  Level FlightAware ADS-B
09:03PM 47.9702 -123.9320 98° East 529 609 35,000  Level FlightAware ADS-B
09:04PM 47.9605 -123.8230 98° East 529 609 35,000  Level FlightAware ADS-B
09:05PM 47.9488 -123.6960 98° East 529 609 35,000  Level FlightAware ADS-B
09:05PM 47.9388 -123.5860 98° East 529 609 35,000  Level FlightAware ADS-B
09:06PM 47.9287 -123.4780 98° East 530 610 35,000  Level FlightAware ADS-B
09:06PM 47.9178 -123.3620 98° East 530 610 35,000  Level FlightAware ADS-B
09:07PM 47.9075 -123.2530 98° East 530 610 35,000  Level FlightAware ADS-B
09:07PM 47.8970 -123.1450 98° East 531 611 35,000  Level FlightAware ADS-B
09:08PM 47.8864 -123.0360 98° East 532 612 35,000  Level FlightAware ADS-B
09:08PM 47.8757 -122.9260 98° East 533 613 35,000  Level FlightAware ADS-B
09:09PM 47.8643 -122.8110 98° East 534 615 35,000  Level FlightAware ADS-B
09:09PM 47.8533 -122.7010 98° East 534 615 35,000  Level FlightAware ADS-B
09:10PM 47.8422 -122.5920 99° East 533 613 35,000  Level FlightAware ADS-B
09:10PM 47.8311 -122.4820 99° East 533 613 35,000  Level FlightAware ADS-B
09:11PM 47.8198 -122.3730 99° East 532 612 35,000  Level FlightAware ADS-B
09:11PM 47.8083 -122.2620 99° East 532 612 35,000  Level FlightAware ADS-B
09:12PM 47.7969 -122.1530 99° East 531 611 35,000  Level FlightAware ADS-B
09:12PM 47.7855 -122.0450 99° East 530 610 35,000  Level FlightAware ADS-B
09:13PM 47.7731 -121.9300 99° East 532 612 35,000  Level FlightAware ADS-B
09:13PM 47.7612 -121.8200 99° East 532 612 35,000  Level FlightAware ADS-B
09:14PM 47.7489 -121.7070 99° East 532 612 35,000  Level FlightAware ADS-B
09:14PM 47.7369 -121.5990 99° East 531 611 35,000  Level FlightAware ADS-B
09:15PM 47.7249 -121.4900 99° East 531 611 35,000  Level FlightAware ADS-B
09:15PM 47.7125 -121.3790 99° East 530 610 35,000  Level FlightAware ADS-B
09:16PM 47.7001 -121.2700 100° East 531 611 35,000  Level FlightAware ADS-B
09:16PM 47.6881 -121.1890 102° East 526 605 35,000  Level FlightAware ADS-B
09:16PM 47.6812 -121.1600 109° East 521 600 35,000  Level FlightAware ADS-B
09:17PM 47.6502 -121.0640 116° Southeast 516 594 35,000  Level FlightAware ADS-B
09:17PM 47.6184 -120.9690 116° Southeast 517 595 35,000  Level FlightAware ADS-B
09:17PM 47.6053 -120.9280 115° Southeast 519 597 35,000  Level FlightAware ADS-B
09:18PM 47.5934 -120.8780 109° East 524 603 35,000  Level FlightAware ADS-B
09:18PM 47.5773 -120.7720 103° East 530 610 35,000  Level FlightAware ADS-B
09:19PM 47.5701 -120.7160 101° East 532 612 35,000  Level FlightAware ADS-B
09:19PM 47.5579 -120.6070 99° East 535 616 35,000  Level FlightAware ADS-B
09:20PM 47.5457 -120.4970 99° East 535 616 35,000  Level FlightAware ADS-B
09:20PM 47.5333 -120.3880 100° East 534 615 35,000  Level FlightAware ADS-B
09:21PM 47.5205 -120.2780 100° East 534 615 35,000  Level FlightAware ADS-B
09:21PM 47.5075 -120.1700 100° East 534 615 35,000  Level FlightAware ADS-B
09:22PM 47.4943 -120.0610 100° East 534 615 35,000  Level FlightAware ADS-B
09:22PM 47.4811 -119.9530 100° East 533 613 35,000  Level FlightAware ADS-B
09:23PM 47.4675 -119.8430 100° East 533 613 35,000  Level FlightAware ADS-B
09:23PM 47.4533 -119.7310 101° East 533 613 35,000  Level FlightAware ADS-B
09:24PM 47.4377 -119.6060 100° East 531 611 35,000  Level FlightAware ADS-B
09:24PM 47.4240 -119.4980 101° East 531 611 35,000  Level FlightAware ADS-B
09:25PM 47.4094 -119.3840 101° East 532 612 35,000  Level FlightAware ADS-B
09:25PM 47.3956 -119.2770 101° East 533 613 35,000  Level FlightAware ADS-B
09:26PM 47.3650 -119.0440 101° East 531 611 35,000  Level FlightAware
09:27PM 47.3470 -118.9020 101° East 531 611 35,000  Level FlightAware
09:28PM 47.3280 -118.7620 101° East 529 609 35,000  Level FlightAware
09:28PM 47.3080 -118.6110 101° East 527 606 35,000  Level FlightAware
09:29PM 47.2860 -118.4510 101° East 525 604 35,000  Level FlightAware
09:30PM 47.2630 -118.2800 101° East 525 604 35,000  Level FlightAware
09:31PM 47.2500 -118.1790 101° East 525 604 35,000  Level FlightAware
09:31PM 47.2310 -118.0350 101° East 525 604 35,000  Level FlightAware
09:32PM 47.1980 -117.8230 103° East 528 608 35,000  Level FlightAware
09:33PM 47.1760 -117.6670 102° East 525 604 35,000  Level FlightAware
09:34PM 47.1580 -117.5370 101° East 526 605 35,000  Level FlightAware
09:34PM 47.1440 -117.4290 101° East 526 605 35,000  Level FlightAware
09:35PM 47.1270 -117.3010 101° East 526 605 35,000  Level FlightAware
09:36PM 47.1080 -117.1610 101° East 526 605 35,000  Level FlightAware
09:36PM 47.0940 -117.0530 101° East 526 605 35,000  Level FlightAware
09:37PM 47.0760 -116.9160 101° East 526 605 35,000  Level FlightAware
09:38PM 47.0620 -116.8090 101° East 526 605 35,000  Level FlightAware
09:38PM 47.0420 -116.6630 101° East 526 605 35,000  Level FlightAware
09:39PM 47.0270 -116.5500 101° East 526 605 35,000  Level FlightAware
09:40PM 47.0060 -116.3920 101° East 526 605 35,000  Level FlightAware
09:41PM 46.9870 -116.2490 101° East 526 605 35,000  Level FlightAware
09:41PM 46.9730 -116.1420 101° East 526 605 35,000  Level FlightAware
09:42PM 46.9540 -115.9990 101° East 526 605 35,000  Level FlightAware
09:43PM 46.9400 -115.8890 101° East 526 605 35,000  Level FlightAware
09:44PM 46.8147 -115.3447 101° East 526 605 35,000  Level Seattle Center
09:45PM 46.7733 -115.0947 104° East 529 609 35,000  Level Seattle Center
09:46PM 46.7375 -114.8881 104° East 529 609 35,000  Level Seattle Center
09:47PM 46.7025 -114.6856 104° East 523 602 35,000  Level Seattle Center
09:48PM 46.6672 -114.4789 104° East 528 608 35,000  Level Seattle Center
09:49PM 46.6228 -114.2786 108° East 525 604 35,000  Level Seattle Center
09:50PM 46.5764 -114.0789 109° East 525 604 35,000  Level Seattle Center
09:51PM 46.5308 -113.8794 108° East 524 603 35,000  Level Seattle Center
09:52PM 46.4936 -113.6778 105° East 519 597 35,000  Level Seattle Center
09:53PM 46.4500 -113.4331 104° East 522 601 35,000  Level Salt Lake Center
09:54PM 46.4081 -113.2050 105° East 521 600 35,000  Level Salt Lake Center
09:56PM 46.3700 -113.0031 105° East 518 596 35,000  Level Salt Lake Center
09:57PM 46.3311 -112.8022 106° East 518 596 35,000  Level Salt Lake Center
09:58PM 46.2931 -112.6031 105° East 517 595 35,000  Level Salt Lake Center
09:59PM 46.2553 -112.3997 105° East 522 601 35,000  Level Salt Lake Center
10:00PM 46.2169 -112.2017 106° East 517 595 35,000  Level Salt Lake Center
10:01PM 46.1786 -112.0061 106° East 508 585 35,000  Level Salt Lake Center
10:02PM 46.1325 -111.8136 109° East 510 587 35,000  Level Salt Lake Center
10:03PM 46.0653 -111.6433 120° Southeast 491 565 35,000  Level Salt Lake Center
10:04PM 45.9844 -111.4367 119° Southeast 493 567 35,000  Level Salt Lake Center
10:05PM 45.9178 -111.2642 119° Southeast 492 566 35,000  Level Salt Lake Center
10:06PM 45.8492 -111.0856 119° Southeast 499 574 35,000  Level Salt Lake Center
10:07PM 45.7650 -110.9211 126° Southeast 500 575 35,000  Level Salt Lake Center
10:08PM 45.6889 -110.7631 125° Southeast 484 557 35,000  Level Salt Lake Center
10:09PM 45.6119 -110.6014 124° Southeast 488 562 35,000  Level Salt Lake Center
10:10PM 45.5353 -110.4442 125° Southeast 492 566 35,000  Level Salt Lake Center
10:11PM 45.4600 -110.2894 125° Southeast 494 568 35,000  Level Salt Lake Center
10:12PM 45.3706 -110.1064 125° Southeast 499 574 35,000  Level Salt Lake Center
10:13PM 45.2942 -109.9492 125° Southeast 502 578 35,000  Level Salt Lake Center
10:14PM 45.2033 -109.7658 125° Southeast 505 581 35,000  Level Salt Lake Center
10:15PM 45.1275 -109.6061 124° Southeast 508 585 35,000  Level Salt Lake Center
10:16PM 45.0833 -109.4250 109° East 508 585 35,000  Level Salt Lake Center
10:17PM 45.0522 -109.2031 101° East 513 590 35,000  Level Salt Lake Center
10:18PM 45.0228 -109.0122 102° East 517 595 35,000  Level Salt Lake Center
10:19PM 44.9914 -108.7906 101° East 517 595 35,000  Level Salt Lake Center
10:20PM 44.9642 -108.6003 101° East 517 595 35,000  Level Salt Lake Center
10:21PM 44.9356 -108.4083 102° East 518 596 35,000  Level Salt Lake Center
10:22PM 44.9011 -108.1839 102° East 522 601 35,000  Level Salt Lake Center
10:23PM 44.8717 -107.9903 102° East 525 604 35,000  Level Salt Lake Center
10:24PM 44.8417 -107.7958 102° East 529 609 35,000  Level Salt Lake Center
10:25PM 44.8053 -107.5692 103° East 531 611 35,000  Level Salt Lake Center
10:26PM 44.7761 -107.3739 102° East 532 612 35,000  Level Salt Lake Center
10:27PM 44.7394 -107.1617 104° East 530 610 35,000  Level Salt Lake Center
10:28PM 44.7081 -106.9672 103° East 532 612 35,000  Level Salt Lake Center
10:29PM 44.6708 -106.7456 103° East 525 604 35,000  Level Salt Lake Center
10:30PM 44.6386 -106.5544 103° East 525 604 35,000  Level Salt Lake Center
10:31PM 44.6000 -106.3297 103° East 528 608 35,000  Level Salt Lake Center
10:32PM 44.5608 -106.1033 104° East 529 609 35,000  Level Denver Center
10:33PM 44.5261 -105.9094 104° East 532 612 35,000  Level Denver Center
10:34PM 44.4936 -105.7172 103° East 535 616 35,000  Level Salt Lake Center
10:35PM 44.4592 -105.5253 104° East 533 613 35,000  Level Salt Lake Center
10:36PM 44.4247 -105.3367 104° East 529 609 35,000  Level Salt Lake Center
10:37PM 44.3844 -105.1164 104° East 525 604 35,000  Level Salt Lake Center
10:38PM 44.3503 -104.9247 104° East 527 606 35,000  Level Salt Lake Center
10:40PM 44.3089 -104.7017 104° East 526 605 35,000  Level Denver Center
10:41PM 44.2672 -104.4836 105° East 524 603 35,000  Level Denver Center
10:42PM 44.2319 -104.3019 105° East 518 596 35,000  Level Denver Center
10:43PM 44.1958 -104.1156 105° East 519 597 35,000  Level Denver Center
10:44PM 44.1547 -103.9006 105° East 516 594 35,000  Level Denver Center
10:45PM 44.1181 -103.7144 105° East 518 596 35,000  Level Denver Center
10:46PM 44.0756 -103.5014 105° East 514 592 35,000  Level Denver Center
10:47PM 44.0392 -103.3172 105° East 515 593 35,000  Level Denver Center
10:48PM 44.0022 -103.1333 106° East 515 593 35,000  Level Denver Center
10:49PM 43.9336 -102.9272 115° Southeast 541 623 35,000  Level Denver Center
10:50PM 43.8478 -102.7644 126° Southeast 547 629 35,000  Level Denver Center
10:51PM 43.7489 -102.5733 126° Southeast 547 629 35,000  Level Denver Center
10:52PM 43.6658 -102.4156 126° Southeast 540 621 35,000  Level Denver Center
10:53PM 43.5814 -102.2556 126° Southeast 538 619 35,000  Level Denver Center
10:54PM 43.4825 -102.0706 126° Southeast 537 618 35,000  Level Denver Center
10:55PM 43.3944 -101.9064 126° Southeast 535 616 35,000  Level Denver Center
10:56PM 43.3058 -101.7406 126° Southeast 539 620 35,000  Level Denver Center
10:57PM 43.2178 -101.5767 126° Southeast 536 617 35,000  Level Denver Center
10:58PM 43.1278 -101.4114 127° Southeast 542 624 35,000  Level Denver Center
10:59PM 43.0217 -101.2150 126° Southeast 540 621 35,000  Level Denver Center
11:00PM 42.9311 -101.0533 127° Southeast 537 618 35,000  Level Denver Center
11:01PM 42.8250 -100.8589 127° Southeast 535 616 35,000  Level Denver Center
11:02PM 42.7392 -100.7058 127° Southeast 533 613 35,000  Level Denver Center
11:08PM 42.1933 -99.7415 127° Southeast 540 621 35,000  Level FlightAware ADS-B
11:09PM 42.1467 -99.6606 128° Southeast 542 624 35,000  Level FlightAware ADS-B
11:09PM 42.1005 -99.5805 128° Southeast 543 625 35,000  Level FlightAware ADS-B
11:10PM 42.0536 -99.4996 128° Southeast 544 626 35,000  Level FlightAware ADS-B
11:10PM 42.0049 -99.4160 128° Southeast 544 626 35,000  Level FlightAware ADS-B
11:11PM 41.9524 -99.3257 128° Southeast 544 626 35,000  Level FlightAware ADS-B
11:11PM 41.9031 -99.2416 128° Southeast 545 627 35,000  Level FlightAware ADS-B
11:12PM 41.8550 -99.1595 128° Southeast 544 626 35,000  Level FlightAware ADS-B
11:12PM 41.8081 -99.0796 128° Southeast 545 627 35,000  Level FlightAware ADS-B
11:13PM 41.7602 -98.9982 128° Southeast 548 631 35,000  Level FlightAware ADS-B
11:13PM 41.7132 -98.9187 128° Southeast 548 631 35,000  Level FlightAware ADS-B
11:14PM 41.6345 -98.7859 128° Southeast 550 633 35,000  Level FlightAware ADS-B
11:15PM 41.5859 -98.7042 128° Southeast 551 634 35,000  Level FlightAware ADS-B
11:15PM 41.5378 -98.6237 129° Southeast 551 634 35,000  Level FlightAware ADS-B
11:16PM 41.4902 -98.5440 129° Southeast 551 634 35,000  Level FlightAware ADS-B
11:16PM 41.4417 -98.4631 129° Southeast 550 633 35,000  Level FlightAware ADS-B
11:17PM 41.3932 -98.3818 128° Southeast 551 634 35,000  Level FlightAware ADS-B
11:17PM 41.3571 -98.3179 127° Southeast 548 631 35,000  Level FlightAware ADS-B
11:18PM 41.3124 -98.2344 125° Southeast 548 631 35,000  Level FlightAware ADS-B
11:18PM 41.2685 -98.1517 125° Southeast 548 631 35,000  Level FlightAware ADS-B
11:19PM 41.2223 -98.0645 125° Southeast 548 631 35,000  Level FlightAware ADS-B
11:19PM 41.1777 -97.9810 125° Southeast 550 633 35,000  Level FlightAware ADS-B
11:20PM 41.1323 -97.8962 125° Southeast 552 635 35,000  Level FlightAware ADS-B
11:20PM 41.0876 -97.8130 125° Southeast 552 635 35,000  Level FlightAware ADS-B
11:21PM 41.0429 -97.7301 126° Southeast 554 638 35,000  Level FlightAware ADS-B
11:21PM 40.9981 -97.6473 126° Southeast 554 638 35,000  Level FlightAware ADS-B
11:22PM 40.9519 -97.5620 126° Southeast 554 638 35,000  Level FlightAware ADS-B
11:22PM 40.9068 -97.4788 126° Southeast 553 636 35,000  Level FlightAware ADS-B
11:23PM 40.8617 -97.3961 126° Southeast 553 636 35,000  Level FlightAware ADS-B
11:23PM 40.8170 -97.3141 126° Southeast 553 636 35,000  Level FlightAware ADS-B
11:24PM 40.7714 -97.2310 126° Southeast 550 633 35,000  Level FlightAware ADS-B
11:24PM 40.7268 -97.1498 126° Southeast 546 628 35,000  Level FlightAware ADS-B
11:25PM 40.6824 -97.0690 126° Southeast 543 625 35,000  Level FlightAware ADS-B
11:25PM 40.6379 -96.9884 126° Southeast 541 623 35,000  Level FlightAware ADS-B
11:26PM 40.5933 -96.9077 126° Southeast 540 621 35,000  Level FlightAware ADS-B
11:26PM 40.5486 -96.8271 126° Southeast 540 621 35,000  Level FlightAware ADS-B
11:27PM 40.5029 -96.7448 126° Southeast 541 623 35,000  Level FlightAware ADS-B
11:27PM 40.4570 -96.6623 126° Southeast 540 621 35,000  Level FlightAware ADS-B
11:28PM 40.4126 -96.5830 126° Southeast 539 620 35,000  Level FlightAware ADS-B
11:28PM 40.3683 -96.5040 126° Southeast 539 620 35,000  Level FlightAware ADS-B
11:29PM 40.3229 -96.4233 126° Southeast 539 620 35,000  Level FlightAware ADS-B
11:29PM 40.2783 -96.3441 126° Southeast 540 621 35,000  Level FlightAware ADS-B
11:30PM 40.2347 -96.2673 127° Southeast 541 623 35,000  Level FlightAware ADS-B
11:30PM 40.2099 -96.2293 131° Southeast 547 629 35,000  Level FlightAware ADS-B
11:30PM 40.1790 -96.1903 136° Southeast 552 635 35,000  Level FlightAware ADS-B
11:31PM 40.1176 -96.1290 143° Southeast 556 640 35,000  Level FlightAware ADS-B
11:31PM 40.0540 -96.0707 145° Southeast 553 636 35,000  Level FlightAware ADS-B
11:32PM 39.9885 -96.0114 145° Southeast 552 635 35,000  Level FlightAware ADS-B
11:33PM 39.9036 -95.9343 145° Southeast 549 632 35,000  Level FlightAware ADS-B
11:33PM 39.8319 -95.8692 145° Southeast 549 632 35,000  Level FlightAware ADS-B
11:34PM 39.7666 -95.8099 145° Southeast 549 632 35,000  Level FlightAware ADS-B
11:34PM 39.7037 -95.7527 145° Southeast 548 631 35,000  Level FlightAware ADS-B
11:35PM 39.6405 -95.6955 145° Southeast 548 631 35,000  Level FlightAware ADS-B
11:35PM 39.5777 -95.6387 145° Southeast 547 629 35,000  Level FlightAware ADS-B
11:36PM 39.5132 -95.5806 145° Southeast 547 629 35,000  Level FlightAware ADS-B
11:36PM 39.4503 -95.5240 145° Southeast 542 624 35,000  Level FlightAware ADS-B
11:37PM 39.3873 -95.4675 145° Southeast 540 621 35,000  Level FlightAware ADS-B
11:37PM 39.3212 -95.4083 145° Southeast 542 624 35,000  Level FlightAware ADS-B
11:38PM 39.2535 -95.3478 145° Southeast 543 625 35,000  Level FlightAware ADS-B
11:38PM 39.1767 -95.2795 145° Southeast 541 623 35,000  Level FlightAware ADS-B
11:39PM 39.1140 -95.2238 145° Southeast 541 623 35,000  Level FlightAware ADS-B
11:39PM 39.0521 -95.1691 146° Southeast 540 621 35,000  Level FlightAware ADS-B
11:40PM 38.9859 -95.1105 145° Southeast 540 621 35,000  Level FlightAware ADS-B
11:40PM 38.9235 -95.0555 146° Southeast 540 621 35,000  Level FlightAware ADS-B
11:41PM 38.8614 -95.0009 146° Southeast 540 621 35,000  Level FlightAware ADS-B
11:41PM 38.7974 -94.9448 146° Southeast 540 621 35,000  Level FlightAware ADS-B
11:42PM 38.7308 -94.8884 147° Southeast 539 620 35,000  Level FlightAware ADS-B
11:43PM 38.6700 -94.8333 145° Southeast 540 621 35,000  Level FlightAware ADS-B
11:43PM 38.5993 -94.7716 146° Southeast 541 623 35,000  Level FlightAware ADS-B
11:44PM 38.5279 -94.7095 146° Southeast 540 621 35,000  Level FlightAware ADS-B
11:44PM 38.4645 -94.6545 146° Southeast 540 621 35,000  Level FlightAware ADS-B
11:45PM 38.3985 -94.5974 146° Southeast 539 620 35,000  Level FlightAware ADS-B
11:45PM 38.3351 -94.5426 146° Southeast 541 623 35,000  Level FlightAware ADS-B
11:46PM 38.2603 -94.4699 143° Southeast 540 621 35,000  Level FlightAware ADS-B
11:47PM 38.1400 -94.3190 135° Southeast 543 625 35,000  Level FlightAware
11:48PM 38.0610 -94.2190 135° Southeast 543 625 35,000  Level FlightAware
11:48PM 37.9830 -94.1190 135° Southeast 541 623 35,000  Level FlightAware
11:49PM 37.9140 -94.0320 135° Southeast 543 625 35,000  Level FlightAware
11:50PM 37.8370 -93.9340 135° Southeast 542 624 35,000  Level FlightAware
11:51PM 37.7610 -93.8390 135° Southeast 543 625 35,000  Level FlightAware
11:51PM 37.6800 -93.7380 135° Southeast 540 621 35,000  Level FlightAware
11:52PM 37.6100 -93.6490 135° Southeast 540 621 35,000  Level FlightAware
11:53PM 37.5360 -93.5570 135° Southeast 538 619 35,000  Level FlightAware
11:53PM 37.4610 -93.4640 135° Southeast 539 620 35,000  Level FlightAware
11:54PM 37.3890 -93.3750 136° Southeast 539 620 35,000  Level FlightAware
11:55PM 37.3280 -93.2790 129° Southeast 539 620 35,000  Level FlightAware
11:55PM 37.2740 -93.1720 122° Southeast 541 623 35,000  Level FlightAware
11:56PM 37.2070 -93.0400 122° Southeast 541 623 35,000  Level FlightAware
11:57PM 37.1530 -92.9350 123° Southeast 541 623 35,000  Level FlightAware
11:58PM 37.0990 -92.8290 123° Southeast 541 623 35,000  Level FlightAware
11:58PM 37.0390 -92.7130 123° Southeast 542 624 35,000  Level FlightAware
11:59PM 36.9800 -92.5980 123° Southeast 543 625 35,000  Level FlightAware
12:00AM 36.9240 -92.4910 123° Southeast 543 625 35,000  Level FlightAware
12:00AM 36.8700 -92.3860 123° Southeast 543 625 35,000  Level FlightAware
12:01AM 36.8090 -92.2690 123° Southeast 542 624 35,000  Level FlightAware
12:02AM 36.7520 -92.1590 123° Southeast 542 624 35,000  Level FlightAware
12:02AM 36.7060 -92.0710 123° Southeast 542 624 35,000  Level FlightAware
12:03AM 36.6370 -91.9400 123° Southeast 546 628 35,000  Level FlightAware
12:04AM 36.5820 -91.8360 123° Southeast 546 628 35,000 -180 Level FlightAware
12:05AM 36.5200 -91.7190 123° Southeast 546 628 34,800 -1,380 Descending FlightAware
12:05AM 36.4640 -91.6140 124° Southeast 545 627 33,100 -2,700 Descending FlightAware
12:06AM 36.4010 -91.4950 123° Southeast 545 627 31,000 -2,460 Descending FlightAware
12:07AM 36.3460 -91.3930 124° Southeast 533 613 29,600 -2,100 Descending FlightAware
12:07AM 36.2950 -91.2960 123° Southeast 525 604 28,300 -2,040 Descending FlightAware
12:08AM 36.2400 -91.1950 124° Southeast 523 602 26,900 -1,620 Descending FlightAware
12:09AM 36.1500 -91.0250 123° Southeast 511 588 25,300 -780 Descending FlightAware
12:10AM 36.0930 -90.9170 123° Southeast 511 588 25,300  Level FlightAware
12:11AM 36.0430 -90.8230 123° Southeast 511 588 25,300  Level FlightAware
12:12AM 35.9760 -90.6940 123° Southeast 511 588 25,300  Level FlightAware
12:12AM 35.9360 -90.6190 123° Southeast 511 588 25,300 -4,680 Level FlightAware
12:13AM 35.6833 -90.8333 123° Southeast 395 455 18,600 -4,440 Descending KMEM
12:14AM 35.5697 -90.8139 172° South 399 459 16,900 -1,620 Descending Memphis Center
12:15AM 35.4678 -90.7725 162° South 394 453 15,300 -1,620 Descending Memphis Center
12:16AM 35.4139 -90.6578 120° Southeast 368 423 13,700 -1,320 Descending Memphis Center
12:17AM 35.3722 -90.5431 114° Southeast 368 423 12,700 -960 Descending Memphis Center
12:18AM 35.3244 -90.4436 120° Southeast 348 400 11,800 -1,080 Descending Memphis Center
12:19AM 35.2681 -90.3594 129° Southeast 330 380 10,600 -780 Descending Memphis Center
12:20AM 35.2222 -90.2911 129° Southeast 308 354 10,300 -540 Descending Memphis Center
12:21AM 35.1700 -90.2122 129° Southeast 303 349 9,600 -1,020 Descending Memphis Center
12:22AM 35.1178 -90.1361 130° Southeast 303 349 8,300 -1,440 Descending Memphis Center
12:23AM 35.0467 -90.1111 164° South 264 304 6,800 -1,500 Descending Memphis Center
12:24AM 34.9675 -90.1114 180° South 276 318 5,400 -1,320 Descending Memphis Center
12:25AM 34.9006 -90.0911 166° South 265 305 4,200 -1,320 Descending Memphis Center
12:26AM 34.8900 -90.0153 100° East 201 231 2,800 -1,140 Descending Memphis Center
12:27AM 34.9192 -89.9672 53° Northeast 158 182 2,000 -720 Descending Memphis Center
12:29AM 34.9833 -89.9667 360° North 158 182 1,200 -600 Descending KMEM
12:31AM 35.0333 -89.9667 129° Southeast  Level FlightAware Approximate
12:38AM 35.0424 -89.9767 129° Southeast  Level Estimated